Allen Army Airfield
PABI : now visible

Aeroporto :











RITROVATECI SU...

 
LOGIN :

Iscrizione | Disclaimer

   EN    FR    IT 

 









Sommario :    VFR   VFR Marginale   IFR   IFR Intensivo   IFR Molto Intensivo
Visibilità : 
Base nubi : 
>= 8 km
>= 3000ft
5 / 8 km
1000 / 3000 ft
1500m / 5 km
500 / 1000 ft
800 / 1500m
200 / 500 ft
< 800m
< 200 ft
Simboli :   Temporali  Nebbia  Neve Forte  Precipitazioni Forti  Vento > 20 kt






- Altitudine del aeroporto : 1291 ft
- Codice IATA : BIG


PABI - Allen Army

ULTIMO METAR :
  • 021153Z AUTO 23004KT 10SM OVC040 08/07 A2956 RMK AO2 SLP017 70023 T00830067 10111 20083 50003 TSNO $

METARs OBSOLETI :
  • 021127Z AUTO 18003KT 10SM FEW026 BKN033 OVC044 08/07 A2955 RMK AO2 T00830067 TSNO $
  • 021053Z AUTO 19007KT 10SM FEW021 BKN026 OVC033 09/06 A2956 RMK AO2 SLP015 T00890061 TSNO $
  • 021037Z AUTO 22007KT 10SM SCT021 BKN029 OVC034 09/06 A2955 RMK AO2 T00890061 TSNO $
  • 020953Z AUTO 00000KT 10SM SCT024 BKN033 OVC042 09/08 A2955 RMK AO2 SLP009 T00940078 TSNO $

TAF TAF PABI
Valido dal 02 a 06 ore il 03 a 12 ore UTC


020600Z 0206/0312 14009KT 9999 VCSH SCT050 BKN060 QNH2946INS
BECMG 0223/0224 18015G25KT 9999 NSW BKN045 QNH2956INS TX17/0221Z TN08/0212Z FOR MIL USE ONLY
FIR PAZA / America del Nord



MetMap, La meteo Aeronautica in un colpo d'occhio ! - Copyright ORBIFLY Dicembre 2007 - Disclaimer

ORBIFLY MET'MAP TEAM :

Programmazione e sviluppo : Alexandra Zaïnal
Concezione : Baudouin d'Aumeries
Aiuto per la programmazione : Marc-Olivier Méhu
Supporto tecnico e logistico : Manuel Goepfert
Aiuto per la traduzione : Arnaldo La Scala

Contatto : metmap@orbifly.com




FONTI E CREDITI :

   NOAA       Earth
Advisory